Time;durP1;ratioP1;P1;durP2;ratioP2;P2;SDS_P1;SDS_P2;PMS_P1;PMS_P2;Temp;Humidity;BMP_temperature;BMP_pressure;BME280_temperature;BME280_humidity;BME280_pressure;Samples;Min_cycle;Max_cycle;Signal;HPM_P1;HPM_P2
2022/01/28 03:46:52;;;;;;;2.90;2.25;;;6.00;96.90;;;;;;5064130;24;20085;-82
2022/01/28 03:49:17;;;;;;;4.15;2.58;;;6.10;96.80;;;;;;4798887;30;20327;-82
2022/01/28 03:51:43;;;;;;;2.80;2.10;;;6.10;96.60;;;;;;4784063;30;20106;-82
2022/01/28 03:54:09;;;;;;;4.18;2.50;;;6.20;96.40;;;;;;4784069;30;20207;-82
2022/01/28 03:56:35;;;;;;;3.03;2.25;;;6.20;96.40;;;;;;4799122;30;20035;-81
2022/01/28 03:59:00;;;;;;;2.70;2.08;;;6.20;96.00;;;;;;4783473;30;20046;-81
2022/01/28 04:01:32;;;;;;;4.70;2.45;;;6.30;95.90;;;;;;4798673;30;20039;-80
2022/01/28 04:04:50;;;;;;;2.83;2.08;;;6.30;95.60;;;;;;4783885;30;20100;-81
2022/01/28 04:12:20;;;;;;;3.10;2.30;;;6.30;95.20;;;;;;4785768;30;20041;-82
2022/01/28 04:15:03;;;;;;;5.70;2.50;;;6.30;95.20;;;;;;4798723;29;20031;-82
2022/01/28 04:17:29;;;;;;;3.17;2.35;;;6.30;95.10;;;;;;4790648;29;20050;-82
2022/01/28 04:19:55;;;;;;;3.25;2.38;;;6.30;95.00;;;;;;4786117;30;20047;-83
2022/01/28 04:22:21;;;;;;;3.47;2.00;;;6.30;95.00;;;;;;4785912;30;20039;-83
2022/01/28 04:24:48;;;;;;;4.85;2.63;;;6.30;94.80;;;;;;4801476;29;20350;-83
2022/01/28 04:27:14;;;;;;;4.38;3.08;;;6.40;95.10;;;;;;4800617;30;20207;-83
2022/01/28 04:29:41;;;;;;;2.80;2.45;;;6.40;94.80;;;;;;4785860;29;20028;-82
2022/01/28 04:32:07;;;;;;;3.22;2.40;;;6.40;94.50;;;;;;4800117;30;20054;-83
2022/01/28 04:34:33;;;;;;;5.10;2.60;;;6.40;94.50;;;;;;4798349;30;20223;-82
2022/01/28 04:45:09;;;;;;;6.13;2.67;;;6.40;94.30;;;;;;4764040;30;20109;-82
2022/01/28 04:56:14;;;;;;;3.75;2.47;;;6.50;93.40;;;;;;4675015;30;20324;-83
2022/01/28 05:15:05;;;;;;;4.30;2.55;;;6.70;93.60;;;;;;4669709;30;20050;-82
2022/01/28 05:27:57;;;;;;;5.18;3.13;;;6.70;93.80;;;;;;4676562;30;20044;-82
2022/01/28 05:30:23;;;;;;;5.00;3.67;;;6.60;93.80;;;;;;4712051;30;20404;-82
2022/01/28 05:32:49;;;;;;;4.70;3.60;;;6.60;93.90;;;;;;4764938;30;20209;-83
2022/01/28 05:35:15;;;;;;;6.40;4.07;;;6.60;93.90;;;;;;4761804;30;20040;-82
2022/01/28 05:37:40;;;;;;;7.40;3.63;;;6.60;93.90;;;;;;4746913;30;20039;-83
2022/01/28 05:40:06;;;;;;;6.85;3.53;;;6.60;93.90;;;;;;4753601;30;20028;-83
2022/01/28 05:42:33;;;;;;;5.03;3.50;;;6.60;94.00;;;;;;4746873;30;20363;-83
2022/01/28 05:44:59;;;;;;;5.75;3.70;;;6.60;94.10;;;;;;4779297;30;20031;-82
2022/01/28 05:47:26;;;;;;;5.03;3.90;;;6.60;94.30;;;;;;4763851;30;20082;-83
2022/01/28 05:49:52;;;;;;;6.55;4.38;;;6.60;94.50;;;;;;4779625;30;20052;-82
2022/01/28 05:52:18;;;;;;;5.70;3.90;;;6.60;94.40;;;;;;4778812;30;20047;-83
2022/01/28 05:54:43;;;;;;;5.28;3.67;;;6.60;94.40;;;;;;4764486;30;20308;-82
2022/01/28 05:57:09;;;;;;;6.53;3.90;;;6.60;94.30;;;;;;4764135;30;20044;-83
2022/01/28 05:59:35;;;;;;;5.07;3.63;;;6.60;94.40;;;;;;4779267;30;20039;-82
2022/01/28 06:02:01;;;;;;;5.15;3.65;;;6.60;94.20;;;;;;4762688;30;20265;-83
2022/01/28 06:04:28;;;;;;;6.25;3.30;;;6.60;94.10;;;;;;4749297;30;20042;-83
2022/01/28 06:06:53;;;;;;;;;;;6.60;93.80;;;;;;4764149;30;20044;-82
2022/01/28 06:09:19;;;;;;;5.03;2.90;;;6.60;93.20;;;;;;4764204;30;19960;-83
2022/01/28 06:11:46;;;;;;;8.25;4.43;;;6.70;93.00;;;;;;4764104;30;20051;-83
2022/01/28 06:14:12;;;;;;;3.30;1.95;;;6.70;92.10;;;;;;4764515;30;20052;-83
2022/01/28 06:16:38;;;;;;;1.75;1.25;;;6.70;90.50;;;;;;4763793;30;20312;-83
2022/01/28 06:19:04;;;;;;;2.20;1.33;;;6.70;89.10;;;;;;4747294;30;20044;-83
2022/01/28 06:21:30;;;;;;;3.00;1.20;;;6.80;88.80;;;;;;4762897;30;20105;-82
2022/01/28 06:23:56;;;;;;;3.67;1.55;;;6.80;85.90;;;;;;4763910;30;20291;-83
2022/01/28 06:26:22;;;;;;;6.22;1.30;;;6.80;85.50;;;;;;4763688;30;20304;-83
2022/01/28 06:28:48;;;;;;;2.23;1.10;;;6.80;84.20;;;;;;4778805;30;20235;-83
2022/01/28 06:31:14;;;;;;;6.32;1.23;;;6.80;85.40;;;;;;4763630;30;20039;-83
2022/01/28 06:33:40;;;;;;;3.17;1.33;;;6.80;85.80;;;;;;4743845;30;20033;-82
2022/01/28 06:36:05;;;;;;;1.77;1.10;;;6.70;85.80;;;;;;4765614;30;20036;-82
2022/01/28 06:38:33;;;;;;;2.95;1.50;;;6.70;86.00;;;;;;4763380;30;20038;-83
2022/01/28 06:40:59;;;;;;;2.13;1.20;;;6.60;86.20;;;;;;4763311;30;20239;-83
2022/01/28 06:43:25;;;;;;;1.70;1.30;;;6.60;86.60;;;;;;4763655;30;20339;-82
2022/01/28 06:45:51;;;;;;;2.05;1.05;;;6.60;86.50;;;;;;4777414;30;20125;-82
2022/01/28 06:48:17;;;;;;;2.38;1.40;;;6.60;85.90;;;;;;4747684;30;20036;-83
2022/01/28 06:50:44;;;;;;;7.15;1.42;;;6.60;85.60;;;;;;4762673;30;20065;-83
2022/01/28 06:53:10;;;;;;;;;;;6.50;85.70;;;;;;4761226;30;20515;-83
2022/01/28 06:55:37;;;;;;;2.63;1.42;;;6.50;85.80;;;;;;4762605;30;19989;-83
2022/01/28 06:58:07;;;;;;;6.18;1.92;;;6.50;86.30;;;;;;4761689;30;20048;-83
2022/01/28 07:00:37;;;;;;;5.80;1.58;;;6.50;85.90;;;;;;4760561;30;20347;-83
2022/01/28 07:03:11;;;;;;;3.67;1.70;;;6.60;85.40;;;;;;4762583;30;20033;-84
2022/01/28 07:05:37;;;;;;;7.13;2.65;;;6.60;85.70;;;;;;4748095;30;20051;-83
2022/01/28 07:08:04;;;;;;;3.28;1.38;;;6.70;86.00;;;;;;4762215;30;20051;-83
2022/01/28 07:10:31;;;;;;;3.00;1.40;;;6.70;85.30;;;;;;4778285;30;20035;-83
2022/01/28 07:12:57;;;;;;;4.10;1.48;;;6.70;85.50;;;;;;4762982;30;20146;-83
2022/01/28 07:15:25;;;;;;;2.20;1.30;;;6.70;85.80;;;;;;4762813;30;20047;-83
2022/01/28 07:18:02;;;;;;;6.13;1.60;;;6.70;85.40;;;;;;4775130;30;20038;-83
2022/01/28 07:20:30;;;;;;;6.22;1.35;;;6.80;84.90;;;;;;4760890;30;20463;-82
2022/01/28 07:22:56;;;;;;;2.88;0.98;;;6.80;85.10;;;;;;4746070;30;20343;-82
2022/01/28 07:25:22;;;;;;;5.13;1.27;;;6.90;84.30;;;;;;4762370;30;20059;-84
2022/01/28 07:27:47;;;;;;;5.65;0.98;;;7.10;84.40;;;;;;4762358;30;20089;-84
2022/01/28 07:30:14;;;;;;;1.08;0.65;;;7.10;84.50;;;;;;4747981;30;20027;-84
2022/01/28 07:32:41;;;;;;;1.67;0.65;;;7.20;84.20;;;;;;4777390;30;20346;-83
2022/01/28 07:35:07;;;;;;;3.35;0.93;;;7.30;84.20;;;;;;4764494;30;20034;-84
2022/01/28 07:37:33;;;;;;;1.35;0.88;;;7.20;84.40;;;;;;4763927;30;20131;-84
2022/01/28 07:40:01;;;;;;;4.03;1.00;;;7.20;84.20;;;;;;4750696;30;20027;-82
2022/01/28 07:42:27;;;;;;;1.20;0.80;;;7.20;84.20;;;;;;4766363;30;20323;-82
2022/01/28 07:44:53;;;;;;;2.35;1.10;;;7.10;84.80;;;;;;4765843;30;20038;-82
2022/01/28 07:47:19;;;;;;;2.08;1.15;;;7.00;85.20;;;;;;4765154;30;20063;-83
2022/01/28 07:49:45;;;;;;;2.30;1.02;;;7.10;85.70;;;;;;4765910;30;20095;-83
2022/01/28 07:52:11;;;;;;;6.20;1.25;;;7.20;86.00;;;;;;4766077;30;20059;-83
2022/01/28 07:54:44;;;;;;;6.50;1.15;;;7.20;85.20;;;;;;4765842;30;20042;-83
2022/01/28 07:57:10;;;;;;;1.40;0.90;;;7.30;84.50;;;;;;4780564;30;20056;-83
2022/01/28 07:59:36;;;;;;;2.85;1.25;;;7.30;84.30;;;;;;4765599;30;20043;-83
2022/01/28 08:02:02;;;;;;;1.80;1.05;;;7.30;83.70;;;;;;4764404;30;20291;-83
2022/01/28 08:04:27;;;;;;;2.55;1.10;;;7.30;83.40;;;;;;4780245;30;20382;-83
2022/01/28 08:06:53;;;;;;;3.42;1.13;;;7.30;83.50;;;;;;4765085;30;20051;-83
2022/01/28 08:09:19;;;;;;;2.42;1.10;;;7.30;83.70;;;;;;4764784;30;20032;-83
2022/01/28 08:11:45;;;;;;;2.70;1.10;;;7.30;82.70;;;;;;4764048;30;20115;-83
2022/01/28 08:14:11;;;;;;;2.15;1.27;;;7.30;83.30;;;;;;4764187;30;20028;-83
2022/01/28 08:16:36;;;;;;;3.30;0.93;;;7.30;83.40;;;;;;4764271;30;20035;-83
2022/01/28 08:19:02;;;;;;;6.70;1.70;;;7.40;83.20;;;;;;4758896;30;20312;-83
2022/01/28 08:21:28;;;;;;;4.95;1.40;;;7.50;83.10;;;;;;4749657;30;20039;-83
2022/01/28 08:23:54;;;;;;;2.45;1.10;;;7.60;81.80;;;;;;4763233;30;20040;-83
2022/01/28 08:26:21;;;;;;;2.75;1.30;;;7.60;82.20;;;;;;4748957;30;20045;-83
2022/01/28 08:28:47;;;;;;;2.75;0.88;;;7.60;81.50;;;;;;4750279;30;20027;-83
2022/01/28 08:31:14;;;;;;;2.88;1.00;;;7.50;78.70;;;;;;4780249;30;20059;-82
2022/01/28 08:33:39;;;;;;;2.40;0.87;;;7.50;78.10;;;;;;4749322;30;20055;-82
2022/01/28 08:36:05;;;;;;;1.77;0.88;;;7.70;78.10;;;;;;4749761;30;20042;-82
2022/01/28 08:38:37;;;;;;;6.50;1.20;;;7.80;77.20;;;;;;4764124;30;20028;-82
2022/01/28 08:41:03;;;;;;;5.32;1.05;;;8.00;76.10;;;;;;4750228;30;20115;-84
2022/01/28 08:43:29;;;;;;;5.93;1.08;;;8.00;75.90;;;;;;4749322;30;20042;-82
2022/01/28 08:45:55;;;;;;;2.10;0.95;;;8.00;74.50;;;;;;4763083;30;20264;-83
2022/01/28 08:48:21;;;;;;;5.13;1.00;;;8.10;73.10;;;;;;4763223;30;20146;-83
2022/01/28 08:50:47;;;;;;;3.60;0.90;;;8.10;73.60;;;;;;4749266;30;20327;-84
2022/01/28 08:53:13;;;;;;;2.28;0.73;;;8.10;71.60;;;;;;4763502;30;20335;-83
2022/01/28 08:55:39;;;;;;;2.40;0.80;;;8.10;70.50;;;;;;4761786;30;20035;-86
2022/01/28 08:58:07;;;;;;;4.72;0.60;;;8.10;68.20;;;;;;4749341;30;20040;-83
2022/01/28 09:00:33;;;;;;;5.13;1.05;;;8.10;67.90;;;;;;4764346;30;20043;-82
2022/01/28 09:02:59;;;;;;;5.97;0.98;;;8.00;65.00;;;;;;4764595;30;20286;-83
2022/01/28 09:05:25;;;;;;;6.18;1.08;;;8.00;64.60;;;;;;4764431;30;20048;-83
2022/01/28 09:07:51;;;;;;;3.85;1.25;;;7.90;64.70;;;;;;4779312;30;20035;-83
2022/01/28 09:10:24;;;;;;;3.95;1.05;;;8.00;63.10;;;;;;4764995;30;20027;-84
2022/01/28 09:13:21;;;;;;;7.38;1.30;;;8.10;63.70;;;;;;4779347;30;20110;-83
2022/01/28 09:15:46;;;;;;;6.47;1.13;;;8.10;63.40;;;;;;4779040;30;20040;-82
2022/01/28 09:18:14;;;;;;;5.78;1.30;;;8.20;62.60;;;;;;4764233;30;20216;-83
2022/01/28 09:20:40;;;;;;;5.47;0.90;;;8.20;62.30;;;;;;4778974;30;20051;-83
2022/01/28 09:23:07;;;;;;;4.13;1.30;;;8.30;63.40;;;;;;4778969;30;20115;-83
2022/01/28 09:25:36;;;;;;;3.92;1.00;;;8.30;64.10;;;;;;4778959;30;20270;-82
2022/01/28 09:28:03;;;;;;;5.22;1.10;;;8.20;63.90;;;;;;4764645;30;20027;-82
2022/01/28 09:30:29;;;;;;;6.70;1.20;;;8.30;64.40;;;;;;4779098;30;20040;-82
2022/01/28 09:32:57;;;;;;;3.50;1.03;;;8.50;64.30;;;;;;4778914;30;20036;-83
2022/01/28 09:35:24;;;;;;;4.60;0.65;;;8.50;62.70;;;;;;4764030;30;20544;-82
2022/01/28 09:37:51;;;;;;;4.18;1.20;;;8.60;63.20;;;;;;4778748;30;20383;-82
2022/01/28 09:40:18;;;;;;;3.53;1.00;;;8.80;64.30;;;;;;4764233;30;20036;-83
2022/01/28 09:42:46;;;;;;;4.15;1.33;;;8.90;64.20;;;;;;4763982;30;20027;-83
2022/01/28 09:45:17;;;;;;;3.67;1.00;;;9.00;62.50;;;;;;4770741;30;20047;-83
2022/01/28 09:47:46;;;;;;;2.35;0.85;;;9.00;62.10;;;;;;4762168;30;20043;-83
2022/01/28 09:50:14;;;;;;;4.95;0.93;;;9.00;60.70;;;;;;4761246;30;20032;-83
2022/01/28 09:52:39;;;;;;;5.05;1.05;;;9.00;59.80;;;;;;4763056;30;20037;-82
2022/01/28 09:55:06;;;;;;;5.00;1.10;;;9.00;58.90;;;;;;4762012;30;20349;-83
2022/01/28 09:57:33;;;;;;;2.80;0.90;;;8.90;58.90;;;;;;4777612;30;20112;-83
2022/01/28 09:59:59;;;;;;;3.85;0.77;;;8.80;58.90;;;;;;4748020;30;20485;-82
2022/01/28 10:02:48;;;;;;;2.60;0.70;;;8.80;59.10;;;;;;4741845;30;20043;-82
2022/01/28 10:05:42;;;;;;;3.42;0.73;;;8.80;59.20;;;;;;4761475;30;20027;-83
2022/01/28 10:08:23;;;;;;;3.45;1.02;;;8.80;59.70;;;;;;4774703;30;20036;-82
2022/01/28 10:11:08;;;;;;;5.82;1.30;;;8.90;59.40;;;;;;4776648;30;20407;-82
2022/01/28 10:13:48;;;;;;;3.70;0.70;;;9.00;59.50;;;;;;4777331;30;20054;-83
2022/01/28 10:16:27;;;;;;;2.67;1.00;;;8.90;60.00;;;;;;4735973;30;20053;-83
2022/01/28 10:18:54;;;;;;;5.75;1.25;;;8.80;61.50;;;;;;4762549;30;20039;-83
2022/01/28 10:21:23;;;;;;;3.13;0.70;;;8.50;65.90;;;;;;4762474;30;20065;-82
2022/01/28 10:24:13;;;;;;;12.70;0.80;;;8.20;66.40;;;;;;4763029;30;20350;-82
2022/01/28 10:26:44;;;;;;;3.28;0.80;;;8.10;67.80;;;;;;4747829;30;20089;-83
2022/01/28 10:29:16;;;;;;;5.15;1.02;;;8.00;68.70;;;;;;4747860;30;20027;-82
2022/01/28 10:31:49;;;;;;;5.30;0.90;;;8.00;68.00;;;;;;4747807;30;20046;-82
2022/01/28 10:34:26;;;;;;;2.08;0.65;;;7.90;68.10;;;;;;4762404;30;20227;-84
2022/01/28 10:37:27;;;;;;;;;;;7.90;67.50;;;;;;4748197;30;20074;-82
2022/01/28 10:39:58;;;;;;;9.32;1.48;;;7.90;67.60;;;;;;4744600;30;19924;-83
2022/01/28 10:42:39;;;;;;;4.97;1.17;;;7.90;67.10;;;;;;4747264;30;20114;-84
2022/01/28 10:45:11;;;;;;;4.13;1.02;;;7.90;67.00;;;;;;4737394;30;20051;-82
2022/01/28 10:47:38;;;;;;;1.50;0.88;;;7.90;66.50;;;;;;4758970;30;20053;-84
2022/01/28 10:50:33;;;;;;;3.90;0.80;;;7.90;66.50;;;;;;4744034;30;20028;-82
2022/01/28 10:53:11;;;;;;;5.90;1.05;;;8.00;66.00;;;;;;4713178;30;20083;-82
2022/01/28 10:55:44;;;;;;;3.65;1.02;;;8.20;66.00;;;;;;4759407;30;20092;-83
2022/01/28 10:58:21;;;;;;;3.90;0.77;;;8.20;65.50;;;;;;4745170;30;20137;-82
2022/01/28 11:00:57;;;;;;;5.13;0.80;;;8.30;65.60;;;;;;4745107;30;20044;-83
2022/01/28 11:03:26;;;;;;;5.00;0.90;;;8.40;65.60;;;;;;4759469;30;20063;-82
2022/01/28 11:06:02;;;;;;;2.72;0.85;;;8.60;65.70;;;;;;4715983;30;20426;-83
2022/01/28 11:08:32;;;;;;;1.23;0.75;;;8.60;65.70;;;;;;4745273;30;20320;-82
2022/01/28 11:11:00;;;;;;;1.98;0.80;;;8.70;65.60;;;;;;4747077;30;20032;-83
2022/01/28 11:13:25;;;;;;;5.75;1.10;;;8.80;65.10;;;;;;4736781;30;20355;-82
2022/01/28 11:15:51;;;;;;;4.72;1.20;;;8.70;65.30;;;;;;4762728;30;20086;-82
2022/01/28 11:18:18;;;;;;;5.55;1.10;;;8.80;65.40;;;;;;4766204;30;20089;-82
2022/01/28 11:21:04;;;;;;;2.78;1.00;;;8.90;65.50;;;;;;4765998;30;20261;-83
2022/01/28 11:23:55;;;;;;;3.70;0.80;;;9.00;64.90;;;;;;4780692;30;20063;-83
2022/01/28 11:26:47;;;;;;;3.20;0.68;;;9.10;62.80;;;;;;4780759;30;20053;-83
2022/01/28 11:29:19;;;;;;;3.72;1.00;;;9.20;62.70;;;;;;4772867;30;20347;-84
2022/01/28 11:31:47;;;;;;;3.65;1.00;;;9.30;62.10;;;;;;4781087;30;20027;-84
2022/01/28 11:34:26;;;;;;;8.10;1.30;;;9.40;62.90;;;;;;4766311;30;20058;-83
2022/01/28 11:36:54;;;;;;;3.00;0.95;;;9.50;61.90;;;;;;4780651;30;20036;-81
2022/01/28 11:39:36;;;;;;;1.92;0.82;;;9.60;60.80;;;;;;4780225;30;20035;-83
2022/01/28 11:42:09;;;;;;;5.45;1.30;;;9.60;61.40;;;;;;4779344;30;20043;-81
2022/01/28 11:44:50;;;;;;;3.75;1.02;;;9.60;61.10;;;;;;4780090;30;20035;-83
2022/01/28 11:47:27;;;;;;;3.22;0.90;;;9.50;60.70;;;;;;4761820;30;20050;-83
2022/01/28 11:50:08;;;;;;;4.72;0.93;;;9.40;60.60;;;;;;4759620;30;20312;-83
2022/01/28 11:52:39;;;;;;;4.93;1.20;;;9.30;60.90;;;;;;4764446;30;20115;-83
2022/01/28 11:55:14;;;;;;;5.55;1.10;;;9.30;61.10;;;;;;4779461;30;20087;-82
2022/01/28 11:58:06;;;;;;;4.13;1.08;;;9.30;61.50;;;;;;4776198;30;20036;-83
2022/01/28 12:00:39;;;;;;;7.35;1.60;;;9.30;60.50;;;;;;4764196;30;20043;-82
2022/01/28 12:03:26;;;;;;;4.43;1.10;;;9.20;61.10;;;;;;4777213;30;20038;-81
2022/01/28 12:05:56;;;;;;;4.43;1.30;;;9.20;60.50;;;;;;4775307;30;20101;-83
2022/01/28 12:08:27;;;;;;;4.18;1.02;;;9.10;60.80;;;;;;4774074;30;20040;-83
2022/01/28 12:10:54;;;;;;;9.68;1.40;;;9.00;60.10;;;;;;4764708;30;20043;-83
2022/01/28 12:13:46;;;;;;;4.00;1.30;;;8.90;60.70;;;;;;4763224;30;20046;-83
2022/01/28 12:16:30;;;;;;;4.20;1.27;;;9.00;60.70;;;;;;4763388;30;20047;-84
2022/01/28 12:18:57;;;;;;;6.03;1.10;;;9.10;59.80;;;;;;4779232;30;20388;-83
2022/01/28 12:21:27;;;;;;;5.90;0.98;;;9.00;59.80;;;;;;4764222;30;20036;-82
2022/01/28 12:24:14;;;;;;;1.95;0.80;;;8.90;59.00;;;;;;4762274;30;20160;-83
2022/01/28 12:27:03;;;;;;;6.57;1.02;;;9.00;59.10;;;;;;4780458;30;20125;-83
2022/01/28 12:29:31;;;;;;;10.60;1.85;;;8.90;59.30;;;;;;4778807;30;20023;-83
2022/01/28 12:31:58;;;;;;;5.45;1.13;;;8.80;58.70;;;;;;4764386;30;20031;-82
2022/01/28 12:34:25;;;;;;;7.75;1.70;;;8.90;59.70;;;;;;4777060;30;20371;-83
2022/01/28 12:36:52;;;;;;;5.30;2.00;;;8.80;59.70;;;;;;4748348;30;20268;-83
2022/01/28 12:39:31;;;;;;;4.22;1.15;;;8.80;60.30;;;;;;4778571;30;20055;-83
2022/01/28 12:44:55;;;;;;;3.92;1.13;;;8.80;60.80;;;;;;4731286;30;20120;-83
2022/01/28 12:47:22;;;;;;;5.85;1.50;;;8.80;61.40;;;;;;4720215;30;20053;-83
2022/01/28 12:49:54;;;;;;;9.60;1.45;;;8.80;61.60;;;;;;4728164;30;20173;-83
2022/01/28 12:52:20;;;;;;;5.05;1.27;;;8.70;61.30;;;;;;4729477;30;20044;-82
2022/01/28 12:54:47;;;;;;;4.28;1.25;;;8.70;62.20;;;;;;4718088;30;20247;-83
2022/01/28 12:57:19;;;;;;;3.38;1.08;;;8.80;62.60;;;;;;4724900;30;20243;-83
2022/01/28 12:59:46;;;;;;;3.50;1.08;;;8.80;62.30;;;;;;4721493;30;20064;-83
2022/01/28 13:02:13;;;;;;;4.10;1.30;;;8.80;62.50;;;;;;4741745;30;20048;-84
2022/01/28 13:04:59;;;;;;;8.23;1.10;;;8.80;62.80;;;;;;4727916;30;20043;-83
2022/01/28 13:10:22;;;;;;;4.82;1.30;;;8.70;63.30;;;;;;4739132;30;20037;-83
2022/01/28 13:12:48;;;;;;;6.95;1.17;;;8.70;63.10;;;;;;4727483;30;20036;-84
2022/01/28 13:15:14;;;;;;;7.45;1.20;;;8.70;63.20;;;;;;4727641;30;20048;-83
2022/01/28 13:17:52;;;;;;;11.23;1.38;;;8.70;63.90;;;;;;4736498;30;20054;-82
2022/01/28 13:20:18;;;;;;;4.72;0.90;;;8.70;63.50;;;;;;4727385;30;20115;-82
2022/01/28 13:22:50;;;;;;;10.05;1.27;;;8.70;63.70;;;;;;4748791;30;20089;-82
2022/01/28 13:25:24;;;;;;;6.80;1.20;;;8.70;63.20;;;;;;4757862;30;20062;-84
2022/01/28 13:27:57;;;;;;;9.00;1.73;;;8.60;63.00;;;;;;4759829;30;20103;-83
2022/01/28 13:30:24;;;;;;;5.18;1.35;;;8.60;63.40;;;;;;4770943;30;20029;-83
2022/01/28 13:32:51;;;;;;;6.10;1.17;;;8.60;63.40;;;;;;4762683;30;20042;-82
2022/01/28 13:35:25;;;;;;;3.45;0.93;;;8.50;63.20;;;;;;4778016;30;20099;-83
2022/01/28 13:38:01;;;;;;;3.63;1.30;;;8.50;63.00;;;;;;4777475;30;20272;-84
2022/01/28 13:40:27;;;;;;;5.45;1.75;;;8.50;63.60;;;;;;4786875;30;20044;-83
2022/01/28 13:43:15;;;;;;;5.72;1.60;;;8.50;63.80;;;;;;4775035;30;20027;-83
2022/01/28 13:45:53;;;;;;;6.65;1.20;;;8.50;64.00;;;;;;4777112;30;20061;-83
2022/01/28 13:48:36;;;;;;;11.35;1.30;;;8.50;64.00;;;;;;4775939;30;20040;-83
2022/01/28 13:51:14;;;;;;;7.45;1.60;;;8.50;64.00;;;;;;4774505;30;20274;-84
2022/01/28 13:56:35;;;;;;;6.75;1.50;;;8.50;63.70;;;;;;4772158;30;20032;-82
2022/01/28 13:59:08;;;;;;;6.78;1.67;;;8.50;64.20;;;;;;4758213;30;20296;-84
2022/01/28 14:01:35;;;;;;;9.57;1.83;;;8.40;63.70;;;;;;4761247;30;20031;-84
2022/01/28 14:04:02;;;;;;;4.53;1.85;;;8.40;64.20;;;;;;4759956;30;20059;-83
2022/01/28 14:06:31;;;;;;;5.07;1.17;;;8.40;64.50;;;;;;4763422;30;20035;-82
2022/01/28 14:09:07;;;;;;;6.90;1.60;;;8.40;64.30;;;;;;4778308;30;20035;-83
2022/01/28 14:11:39;;;;;;;5.30;1.00;;;8.30;63.50;;;;;;4778178;30;20383;-82
2022/01/28 14:14:23;;;;;;;3.58;1.17;;;8.30;64.10;;;;;;4778286;30;20071;-84
2022/01/28 14:16:59;;;;;;;3.45;1.10;;;8.20;64.10;;;;;;4778233;30;20123;-84
2022/01/28 14:19:27;;;;;;;8.15;1.33;;;8.20;64.40;;;;;;4777954;30;20106;-84
2022/01/28 14:21:54;;;;;;;3.58;1.08;;;8.30;64.70;;;;;;4763810;30;20052;-84
2022/01/28 14:24:29;;;;;;;5.57;1.27;;;8.30;64.80;;;;;;4763273;30;20258;-82
2022/01/28 14:32:21;;;;;;;7.88;1.40;;;8.20;65.60;;;;;;4777245;30;20040;-82
2022/01/28 14:34:52;;;;;;;4.13;1.27;;;8.10;65.40;;;;;;4761008;30;20056;-83
2022/01/28 14:37:19;;;;;;;7.53;1.63;;;8.20;67.00;;;;;;4773891;30;20040;-84
2022/01/28 14:39:45;;;;;;;3.58;1.10;;;8.10;65.90;;;;;;4754982;30;20032;-84
2022/01/28 14:42:13;;;;;;;5.40;1.55;;;8.00;65.50;;;;;;4778035;30;20109;-84
2022/01/28 14:44:40;;;;;;;;;;;8.10;65.70;;;;;;4767708;30;20064;-84
2022/01/28 14:47:07;;;;;;;6.40;1.38;;;8.10;65.50;;;;;;4781172;30;19921;-85
2022/01/28 14:49:34;;;;;;;5.95;1.73;;;8.00;64.90;;;;;;4751725;30;20085;-83
2022/01/28 14:52:04;;;;;;;3.88;1.13;;;7.90;65.00;;;;;;4752190;30;20031;-83
2022/01/28 14:54:30;;;;;;;5.82;1.30;;;7.90;65.10;;;;;;4766698;30;20042;-83
2022/01/28 14:57:02;;;;;;;12.68;1.52;;;7.90;64.90;;;;;;4766467;30;20040;-83
2022/01/28 14:59:28;;;;;;;5.50;1.20;;;7.80;65.20;;;;;;4781548;30;20036;-83
2022/01/28 15:01:54;;;;;;;5.78;1.42;;;7.80;65.20;;;;;;4781522;30;20085;-83
2022/01/28 15:04:21;;;;;;;9.20;1.58;;;7.80;65.20;;;;;;4782165;30;20074;-83
2022/01/28 15:06:48;;;;;;;8.38;1.83;;;7.70;65.30;;;;;;4766484;30;20036;-83
2022/01/28 15:09:17;;;;;;;8.63;2.08;;;7.70;65.60;;;;;;4780965;30;20132;-83
2022/01/28 15:11:49;;;;;;;10.10;2.08;;;7.70;65.60;;;;;;4781058;30;20047;-83
2022/01/28 15:14:24;;;;;;;9.27;1.92;;;7.60;65.60;;;;;;4781170;30;20115;-83
2022/01/28 15:16:51;;;;;;;8.45;1.55;;;7.50;65.50;;;;;;4781209;30;20063;-84
2022/01/28 15:19:18;;;;;;;13.27;1.65;;;7.50;66.20;;;;;;4780589;30;20036;-83
2022/01/28 15:21:49;;;;;;;9.38;1.63;;;7.50;66.80;;;;;;4765632;30;20039;-82
2022/01/28 15:24:19;;;;;;;7.00;1.50;;;7.40;66.40;;;;;;4778460;30;20032;-83
2022/01/28 15:26:46;;;;;;;7.07;1.48;;;7.40;66.60;;;;;;4765029;30;20032;-83
2022/01/28 15:29:33;;;;;;;4.65;1.52;;;7.40;66.60;;;;;;4765940;30;20276;-83
2022/01/28 15:37:32;;;;;;;7.22;1.88;;;7.20;67.20;;;;;;4781061;30;20035;-81
2022/01/28 15:39:58;;;;;;;8.05;1.77;;;7.20;67.30;;;;;;4780468;30;20034;-83
2022/01/28 15:42:24;;;;;;;10.45;2.35;;;7.20;67.50;;;;;;4764903;30;20036;-82
2022/01/28 15:44:51;;;;;;;8.20;2.05;;;7.10;67.60;;;;;;4779098;30;20035;-82
2022/01/28 15:47:17;;;;;;;;;;;7.10;68.00;;;;;;4751199;30;20343;-82
2022/01/28 15:49:43;;;;;;;24.50;2.93;;;7.00;68.20;;;;;;4750242;30;19914;-82
2022/01/28 15:52:09;;;;;;;6.22;1.98;;;7.00;68.50;;;;;;4750361;30;20034;-82
2022/01/28 15:54:36;;;;;;;2.75;1.10;;;7.00;68.50;;;;;;4762362;30;20023;-82
2022/01/28 15:57:02;;;;;;;8.88;1.92;;;7.00;68.60;;;;;;4764669;30;20058;-83
2022/01/28 15:59:28;;;;;;;5.13;1.70;;;7.00;68.90;;;;;;4764303;30;20040;-82
2022/01/28 16:01:54;;;;;;;10.50;1.65;;;7.00;69.20;;;;;;4750493;30;20042;-83
2022/01/28 16:04:20;;;;;;;4.45;1.88;;;7.00;69.40;;;;;;4779872;30;20047;-82
2022/01/28 16:06:48;;;;;;;8.55;1.83;;;6.90;69.60;;;;;;4780226;30;20107;-82
2022/01/28 16:09:15;;;;;;;9.43;2.17;;;7.00;69.80;;;;;;4779346;30;20057;-82
2022/01/28 16:11:53;;;;;;;5.05;1.40;;;6.90;69.90;;;;;;4759078;30;21158;-83
2022/01/28 16:14:29;;;;;;;3.85;1.55;;;6.90;69.90;;;;;;4749881;30;20044;-83
2022/01/28 16:19:40;;;;;;;5.50;1.55;;;6.90;69.60;;;;;;4754297;30;20047;-83
2022/01/28 16:22:07;;;;;;;6.78;1.85;;;6.90;69.70;;;;;;4746742;30;20288;-82
2022/01/28 16:24:33;;;;;;;5.50;1.92;;;6.90;69.70;;;;;;4761142;30;20067;-83
2022/01/28 16:27:00;;;;;;;6.47;1.85;;;6.90;69.40;;;;;;4742225;30;20265;-83
2022/01/28 16:29:27;;;;;;;7.45;1.95;;;6.80;69.50;;;;;;4758629;30;20055;-84
2022/01/28 16:31:53;;;;;;;8.23;1.58;;;6.90;69.40;;;;;;4754703;30;20066;-83
2022/01/28 16:34:21;;;;;;;4.93;1.42;;;6.90;69.20;;;;;;4743571;30;20039;-83
2022/01/28 16:36:47;;;;;;;;;;;6.90;68.80;;;;;;4764506;30;20035;-83
2022/01/28 16:39:13;;;;;;;6.30;1.50;;;6.90;68.60;;;;;;4763073;30;19918;-82
2022/01/28 16:41:42;;;;;;;4.18;1.27;;;7.00;68.50;;;;;;4762610;30;20036;-83
2022/01/28 16:44:12;;;;;;;5.00;1.65;;;7.00;67.40;;;;;;4760992;30;20047;-82
2022/01/28 16:46:39;;;;;;;8.38;1.75;;;7.00;68.00;;;;;;4762894;30;20370;-83
2022/01/28 16:49:05;;;;;;;;;;;7.10;67.70;;;;;;4778612;30;20024;-83
2022/01/28 16:51:31;;;;;;;9.00;1.65;;;7.10;67.30;;;;;;4764038;30;19916;-82
2022/01/28 16:53:57;;;;;;;7.63;1.40;;;7.20;67.30;;;;;;4764101;30;20047;-82
2022/01/28 16:56:24;;;;;;;3.17;1.33;;;7.20;66.60;;;;;;4763722;30;20047;-83
2022/01/28 16:58:51;;;;;;;9.85;2.28;;;7.20;66.30;;;;;;4764163;30;20110;-82
2022/01/28 17:01:18;;;;;;;7.05;1.77;;;7.20;66.20;;;;;;4775027;30;20032;-81
2022/01/28 17:03:45;;;;;;;6.10;1.67;;;7.20;66.10;;;;;;4761581;30;20113;-82
2022/01/28 17:06:11;;;;;;;8.80;1.67;;;7.20;66.10;;;;;;4777548;30;20036;-82
2022/01/28 17:08:38;;;;;;;7.85;2.38;;;7.20;65.90;;;;;;4748785;30;20036;-82
2022/01/28 17:13:47;;;;;;;7.00;1.67;;;7.30;65.90;;;;;;4772633;30;20047;-82
2022/01/28 17:16:14;;;;;;;5.43;1.48;;;7.30;65.30;;;;;;4761011;30;20036;-82
2022/01/28 17:18:40;;;;;;;11.15;2.10;;;7.20;65.50;;;;;;4748955;30;20036;-83
2022/01/28 17:21:06;;;;;;;7.00;1.50;;;7.20;65.50;;;;;;4762627;30;20061;-84
2022/01/28 17:23:34;;;;;;;7.70;1.98;;;7.30;65.30;;;;;;4762948;30;20036;-83
2022/01/28 17:26:00;;;;;;;;;;;7.20;65.10;;;;;;4763736;30;20052;-83
2022/01/28 17:28:27;;;;;;;3.60;1.40;;;7.20;65.60;;;;;;4777721;30;19995;-83
2022/01/28 17:30:53;;;;;;;;;;;7.20;65.20;;;;;;4777775;30;20126;-83
2022/01/28 17:33:19;;;;;;;9.43;2.07;;;7.30;65.10;;;;;;4747756;30;19921;-83
2022/01/28 17:35:45;;;;;;;11.95;2.08;;;7.30;65.40;;;;;;4773560;30;20040;-84
2022/01/28 17:38:13;;;;;;;6.53;1.97;;;7.30;65.20;;;;;;4777265;30;20039;-83
2022/01/28 17:40:39;;;;;;;25.35;2.35;;;7.30;64.70;;;;;;4748299;30;20519;-83
2022/01/28 17:43:05;;;;;;;7.25;2.10;;;7.30;65.20;;;;;;4746131;30;20039;-83
2022/01/28 17:45:32;;;;;;;10.98;2.22;;;7.30;65.20;;;;;;4762136;30;20104;-83
2022/01/28 17:48:00;;;;;;;14.27;2.03;;;7.30;65.40;;;;;;4775248;30;20040;-83
2022/01/28 17:50:26;;;;;;;7.15;1.83;;;7.30;65.40;;;;;;4778055;30;20391;-84
2022/01/28 17:52:54;;;;;;;6.75;1.92;;;7.20;65.50;;;;;;4761710;30;20063;-84
2022/01/28 17:55:20;;;;;;;8.60;2.15;;;7.20;65.90;;;;;;4762830;30;20028;-83
2022/01/28 17:57:46;;;;;;;7.32;1.90;;;7.20;65.90;;;;;;4748038;30;20069;-83
2022/01/28 18:00:13;;;;;;;11.60;2.20;;;7.20;65.90;;;;;;4748548;30;20047;-83
2022/01/28 18:02:39;;;;;;;7.68;2.05;;;7.20;66.40;;;;;;4756710;30;20032;-83
2022/01/28 18:05:05;;;;;;;19.77;2.57;;;7.20;66.50;;;;;;4792545;30;20039;-83
2022/01/28 18:07:31;;;;;;;6.28;1.92;;;7.20;66.50;;;;;;4760813;30;20044;-83
2022/01/28 18:09:58;;;;;;;9.95;2.00;;;7.20;66.90;;;;;;4777409;30;20080;-84